sensor_id;sensor_type;location;lat;lon;timestamp;P1;durP1;ratioP1;P2;durP2;ratioP2
74108;SDS011;62466;47.566;7.786;2022-12-11T00:00:47;26.38;;;12.05;;
74108;SDS011;62466;47.566;7.786;2022-12-11T00:03:12;26.15;;;13.20;;
74108;SDS011;62466;47.566;7.786;2022-12-11T00:05:39;27.20;;;12.50;;
74108;SDS011;62466;47.566;7.786;2022-12-11T00:08:05;26.50;;;13.10;;
74108;SDS011;62466;47.566;7.786;2022-12-11T00:10:32;23.73;;;12.00;;
74108;SDS011;62466;47.566;7.786;2022-12-11T00:12:58;22.08;;;12.50;;
74108;SDS011;62466;47.566;7.786;2022-12-11T00:15:23;25.58;;;13.30;;
74108;SDS011;62466;47.566;7.786;2022-12-11T00:17:49;25.08;;;12.48;;
74108;SDS011;62466;47.566;7.786;2022-12-11T00:20:14;30.63;;;12.75;;
74108;SDS011;62466;47.566;7.786;2022-12-11T00:22:40;25.33;;;13.30;;
74108;SDS011;62466;47.566;7.786;2022-12-11T00:25:06;24.58;;;12.52;;
74108;SDS011;62466;47.566;7.786;2022-12-11T00:27:32;23.88;;;12.63;;
74108;SDS011;62466;47.566;7.786;2022-12-11T00:29:58;28.42;;;13.32;;
74108;SDS011;62466;47.566;7.786;2022-12-11T00:32:24;27.63;;;12.77;;
74108;SDS011;62466;47.566;7.786;2022-12-11T00:34:50;26.63;;;13.43;;
74108;SDS011;62466;47.566;7.786;2022-12-11T00:37:16;30.65;;;13.80;;
74108;SDS011;62466;47.566;7.786;2022-12-11T00:39:42;25.27;;;13.07;;
74108;SDS011;62466;47.566;7.786;2022-12-11T00:42:08;27.05;;;13.05;;
74108;SDS011;62466;47.566;7.786;2022-12-11T00:44:34;23.88;;;11.63;;
74108;SDS011;62466;47.566;7.786;2022-12-11T00:47:00;22.70;;;12.00;;
74108;SDS011;62466;47.566;7.786;2022-12-11T00:49:25;23.13;;;12.15;;
74108;SDS011;62466;47.566;7.786;2022-12-11T00:51:51;19.13;;;11.45;;
74108;SDS011;62466;47.566;7.786;2022-12-11T00:54:17;19.83;;;11.57;;
74108;SDS011;62466;47.566;7.786;2022-12-11T00:56:42;22.83;;;10.88;;
74108;SDS011;62466;47.566;7.786;2022-12-11T00:59:08;17.33;;;10.05;;
74108;SDS011;62466;47.566;7.786;2022-12-11T01:01:34;21.23;;;11.95;;
74108;SDS011;62466;47.566;7.786;2022-12-11T01:04:00;15.93;;;9.85;;
74108;SDS011;62466;47.566;7.786;2022-12-11T01:06:26;19.60;;;11.60;;
74108;SDS011;62466;47.566;7.786;2022-12-11T01:08:52;17.05;;;10.02;;
74108;SDS011;62466;47.566;7.786;2022-12-11T01:11:38;16.88;;;9.93;;
74108;SDS011;62466;47.566;7.786;2022-12-11T01:14:05;18.20;;;10.85;;
74108;SDS011;62466;47.566;7.786;2022-12-11T01:16:31;19.63;;;10.70;;
74108;SDS011;62466;47.566;7.786;2022-12-11T01:18:57;22.35;;;11.13;;
74108;SDS011;62466;47.566;7.786;2022-12-11T01:21:22;18.65;;;10.45;;
74108;SDS011;62466;47.566;7.786;2022-12-11T01:23:49;20.85;;;11.77;;
74108;SDS011;62466;47.566;7.786;2022-12-11T01:26:15;19.75;;;9.70;;
74108;SDS011;62466;47.566;7.786;2022-12-11T01:28:42;22.33;;;11.15;;
74108;SDS011;62466;47.566;7.786;2022-12-11T01:31:08;15.00;;;9.70;;
74108;SDS011;62466;47.566;7.786;2022-12-11T01:33:34;17.85;;;10.85;;
74108;SDS011;62466;47.566;7.786;2022-12-11T01:36:00;16.83;;;10.20;;
74108;SDS011;62466;47.566;7.786;2022-12-11T01:38:26;19.25;;;10.10;;
74108;SDS011;62466;47.566;7.786;2022-12-11T01:40:51;20.13;;;10.32;;
74108;SDS011;62466;47.566;7.786;2022-12-11T01:43:18;17.20;;;9.95;;
74108;SDS011;62466;47.566;7.786;2022-12-11T01:45:44;18.98;;;10.85;;
74108;SDS011;62466;47.566;7.786;2022-12-11T01:48:16;19.02;;;11.38;;
74108;SDS011;62466;47.566;7.786;2022-12-11T01:50:49;21.88;;;11.77;;
74108;SDS011;62466;47.566;7.786;2022-12-11T01:53:18;22.65;;;11.18;;
74108;SDS011;62466;47.566;7.786;2022-12-11T01:55:46;20.98;;;10.68;;
74108;SDS011;62466;47.566;7.786;2022-12-11T01:58:12;25.45;;;13.52;;
74108;SDS011;62466;47.566;7.786;2022-12-11T02:00:39;30.55;;;12.98;;
74108;SDS011;62466;47.566;7.786;2022-12-11T02:03:04;26.35;;;12.70;;
74108;SDS011;62466;47.566;7.786;2022-12-11T02:05:32;26.02;;;11.57;;
74108;SDS011;62466;47.566;7.786;2022-12-11T02:07:59;23.05;;;12.07;;
74108;SDS011;62466;47.566;7.786;2022-12-11T02:11:14;24.55;;;12.82;;
74108;SDS011;62466;47.566;7.786;2022-12-11T02:16:33;19.48;;;11.13;;
74108;SDS011;62466;47.566;7.786;2022-12-11T02:19:25;18.83;;;10.68;;
74108;SDS011;62466;47.566;7.786;2022-12-11T02:21:59;19.10;;;10.25;;
74108;SDS011;62466;47.566;7.786;2022-12-11T02:27:12;20.60;;;11.95;;
74108;SDS011;62466;47.566;7.786;2022-12-11T02:29:48;20.83;;;10.18;;
74108;SDS011;62466;47.566;7.786;2022-12-11T02:32:18;20.75;;;12.40;;
74108;SDS011;62466;47.566;7.786;2022-12-11T02:35:29;24.85;;;12.35;;
74108;SDS011;62466;47.566;7.786;2022-12-11T02:37:38;22.55;;;12.23;;
74108;SDS011;62466;47.566;7.786;2022-12-11T02:40:07;22.58;;;11.73;;
74108;SDS011;62466;47.566;7.786;2022-12-11T02:42:33;29.52;;;12.35;;
74108;SDS011;62466;47.566;7.786;2022-12-11T02:45:00;22.23;;;12.13;;
74108;SDS011;62466;47.566;7.786;2022-12-11T02:47:28;20.35;;;11.52;;
74108;SDS011;62466;47.566;7.786;2022-12-11T02:49:54;26.65;;;13.40;;
74108;SDS011;62466;47.566;7.786;2022-12-11T02:52:22;25.02;;;12.95;;
74108;SDS011;62466;47.566;7.786;2022-12-11T02:54:49;27.88;;;13.05;;
74108;SDS011;62466;47.566;7.786;2022-12-11T02:59:50;20.60;;;12.93;;
74108;SDS011;62466;47.566;7.786;2022-12-11T03:02:15;20.55;;;11.10;;
74108;SDS011;62466;47.566;7.786;2022-12-11T03:04:43;29.55;;;13.35;;
74108;SDS011;62466;47.566;7.786;2022-12-11T03:07:17;20.40;;;10.88;;
74108;SDS011;62466;47.566;7.786;2022-12-11T03:09:48;22.67;;;11.15;;
74108;SDS011;62466;47.566;7.786;2022-12-11T03:12:15;21.02;;;10.55;;
74108;SDS011;62466;47.566;7.786;2022-12-11T03:14:42;23.80;;;11.02;;
74108;SDS011;62466;47.566;7.786;2022-12-11T03:19:40;20.50;;;11.50;;
74108;SDS011;62466;47.566;7.786;2022-12-11T03:22:15;22.05;;;11.27;;
74108;SDS011;62466;47.566;7.786;2022-12-11T03:25:14;21.92;;;10.77;;
74108;SDS011;62466;47.566;7.786;2022-12-11T03:27:57;22.65;;;10.43;;
74108;SDS011;62466;47.566;7.786;2022-12-11T03:30:25;14.43;;;9.48;;
74108;SDS011;62466;47.566;7.786;2022-12-11T03:33:05;20.30;;;10.82;;
74108;SDS011;62466;47.566;7.786;2022-12-11T03:35:35;23.55;;;11.73;;
74108;SDS011;62466;47.566;7.786;2022-12-11T03:40:56;17.42;;;10.70;;
74108;SDS011;62466;47.566;7.786;2022-12-11T03:43:25;17.42;;;10.23;;
74108;SDS011;62466;47.566;7.786;2022-12-11T03:45:52;23.40;;;10.95;;
74108;SDS011;62466;47.566;7.786;2022-12-11T03:48:18;20.98;;;11.90;;
74108;SDS011;62466;47.566;7.786;2022-12-11T03:50:45;24.25;;;11.52;;
74108;SDS011;62466;47.566;7.786;2022-12-11T03:53:12;24.15;;;11.27;;
74108;SDS011;62466;47.566;7.786;2022-12-11T03:55:37;21.00;;;10.63;;
74108;SDS011;62466;47.566;7.786;2022-12-11T03:58:04;20.80;;;11.15;;
74108;SDS011;62466;47.566;7.786;2022-12-11T04:00:29;18.98;;;10.27;;
74108;SDS011;62466;47.566;7.786;2022-12-11T04:02:55;19.08;;;10.88;;
74108;SDS011;62466;47.566;7.786;2022-12-11T04:05:40;18.67;;;10.02;;
74108;SDS011;62466;47.566;7.786;2022-12-11T04:08:10;13.13;;;8.35;;
74108;SDS011;62466;47.566;7.786;2022-12-11T04:10:35;15.30;;;9.45;;
74108;SDS011;62466;47.566;7.786;2022-12-11T04:13:01;13.90;;;9.48;;
74108;SDS011;62466;47.566;7.786;2022-12-11T04:15:26;16.17;;;8.45;;
74108;SDS011;62466;47.566;7.786;2022-12-11T04:17:52;13.07;;;9.10;;
74108;SDS011;62466;47.566;7.786;2022-12-11T04:20:36;16.42;;;9.23;;
74108;SDS011;62466;47.566;7.786;2022-12-11T04:23:20;14.57;;;9.65;;
74108;SDS011;62466;47.566;7.786;2022-12-11T04:26:06;15.82;;;8.30;;
74108;SDS011;62466;47.566;7.786;2022-12-11T04:28:32;17.58;;;8.82;;
74108;SDS011;62466;47.566;7.786;2022-12-11T04:30:58;12.90;;;7.45;;
74108;SDS011;62466;47.566;7.786;2022-12-11T04:33:24;10.85;;;7.28;;
74108;SDS011;62466;47.566;7.786;2022-12-11T04:35:49;15.13;;;9.00;;
74108;SDS011;62466;47.566;7.786;2022-12-11T04:38:15;11.70;;;8.68;;
74108;SDS011;62466;47.566;7.786;2022-12-11T04:40:41;12.88;;;8.85;;
74108;SDS011;62466;47.566;7.786;2022-12-11T04:43:06;15.40;;;8.65;;
74108;SDS011;62466;47.566;7.786;2022-12-11T04:45:32;11.35;;;7.82;;
74108;SDS011;62466;47.566;7.786;2022-12-11T04:47:57;11.30;;;8.25;;
74108;SDS011;62466;47.566;7.786;2022-12-11T04:50:23;14.15;;;8.60;;
74108;SDS011;62466;47.566;7.786;2022-12-11T04:52:49;11.20;;;8.20;;
74108;SDS011;62466;47.566;7.786;2022-12-11T04:55:15;11.18;;;8.85;;
74108;SDS011;62466;47.566;7.786;2022-12-11T04:57:40;11.52;;;8.18;;
74108;SDS011;62466;47.566;7.786;2022-12-11T05:00:07;10.93;;;8.18;;
74108;SDS011;62466;47.566;7.786;2022-12-11T05:02:35;11.40;;;8.50;;
74108;SDS011;62466;47.566;7.786;2022-12-11T05:05:02;10.27;;;7.20;;
74108;SDS011;62466;47.566;7.786;2022-12-11T05:07:31;11.55;;;8.43;;
74108;SDS011;62466;47.566;7.786;2022-12-11T05:09:57;11.68;;;7.47;;
74108;SDS011;62466;47.566;7.786;2022-12-11T05:12:22;16.20;;;9.90;;
74108;SDS011;62466;47.566;7.786;2022-12-11T05:14:50;15.65;;;8.30;;
74108;SDS011;62466;47.566;7.786;2022-12-11T05:17:19;11.93;;;9.02;;
74108;SDS011;62466;47.566;7.786;2022-12-11T05:19:46;11.02;;;8.15;;
74108;SDS011;62466;47.566;7.786;2022-12-11T05:22:13;15.23;;;9.23;;
74108;SDS011;62466;47.566;7.786;2022-12-11T05:24:39;13.80;;;8.70;;
74108;SDS011;62466;47.566;7.786;2022-12-11T05:27:04;15.80;;;9.00;;
74108;SDS011;62466;47.566;7.786;2022-12-11T05:29:30;13.13;;;8.50;;
74108;SDS011;62466;47.566;7.786;2022-12-11T05:31:55;9.77;;;8.23;;
74108;SDS011;62466;47.566;7.786;2022-12-11T05:34:21;9.68;;;7.35;;
74108;SDS011;62466;47.566;7.786;2022-12-11T05:36:47;12.40;;;7.75;;
74108;SDS011;62466;47.566;7.786;2022-12-11T05:39:12;15.82;;;9.10;;
74108;SDS011;62466;47.566;7.786;2022-12-11T05:41:38;10.90;;;7.15;;
74108;SDS011;62466;47.566;7.786;2022-12-11T05:44:04;10.25;;;7.80;;
74108;SDS011;62466;47.566;7.786;2022-12-11T05:46:29;8.13;;;6.85;;
74108;SDS011;62466;47.566;7.786;2022-12-11T05:48:59;8.82;;;7.07;;
74108;SDS011;62466;47.566;7.786;2022-12-11T05:51:27;10.02;;;7.75;;
74108;SDS011;62466;47.566;7.786;2022-12-11T05:53:54;13.75;;;8.77;;
74108;SDS011;62466;47.566;7.786;2022-12-11T05:56:24;18.60;;;10.10;;
74108;SDS011;62466;47.566;7.786;2022-12-11T06:01:21;12.48;;;8.30;;
74108;SDS011;62466;47.566;7.786;2022-12-11T06:03:48;16.50;;;8.63;;
74108;SDS011;62466;47.566;7.786;2022-12-11T06:06:14;11.05;;;7.88;;
74108;SDS011;62466;47.566;7.786;2022-12-11T06:08:40;10.57;;;7.45;;
74108;SDS011;62466;47.566;7.786;2022-12-11T06:11:06;10.13;;;8.27;;
74108;SDS011;62466;47.566;7.786;2022-12-11T06:13:32;10.23;;;7.50;;
74108;SDS011;62466;47.566;7.786;2022-12-11T06:16:01;12.63;;;8.93;;
74108;SDS011;62466;47.566;7.786;2022-12-11T06:18:28;10.57;;;8.00;;
74108;SDS011;62466;47.566;7.786;2022-12-11T06:20:54;11.80;;;8.23;;
74108;SDS011;62466;47.566;7.786;2022-12-11T06:23:20;12.10;;;8.85;;
74108;SDS011;62466;47.566;7.786;2022-12-11T06:25:45;11.70;;;7.85;;
74108;SDS011;62466;47.566;7.786;2022-12-11T06:28:11;15.23;;;8.98;;
74108;SDS011;62466;47.566;7.786;2022-12-11T06:30:36;10.65;;;7.57;;
74108;SDS011;62466;47.566;7.786;2022-12-11T06:33:02;10.68;;;7.75;;
74108;SDS011;62466;47.566;7.786;2022-12-11T06:35:28;9.35;;;7.35;;
74108;SDS011;62466;47.566;7.786;2022-12-11T06:37:53;9.57;;;7.20;;
74108;SDS011;62466;47.566;7.786;2022-12-11T06:40:18;8.10;;;7.20;;
74108;SDS011;62466;47.566;7.786;2022-12-11T06:42:44;8.18;;;6.82;;
74108;SDS011;62466;47.566;7.786;2022-12-11T06:45:10;10.32;;;7.10;;
74108;SDS011;62466;47.566;7.786;2022-12-11T06:47:35;7.85;;;7.18;;
74108;SDS011;62466;47.566;7.786;2022-12-11T06:50:01;11.98;;;8.50;;
74108;SDS011;62466;47.566;7.786;2022-12-11T06:52:27;11.32;;;7.32;;
74108;SDS011;62466;47.566;7.786;2022-12-11T06:54:52;12.40;;;8.15;;
74108;SDS011;62466;47.566;7.786;2022-12-11T06:57:19;10.73;;;8.52;;
74108;SDS011;62466;47.566;7.786;2022-12-11T06:59:45;12.80;;;7.93;;
74108;SDS011;62466;47.566;7.786;2022-12-11T07:02:14;13.27;;;8.98;;
74108;SDS011;62466;47.566;7.786;2022-12-11T07:04:41;9.50;;;7.63;;
74108;SDS011;62466;47.566;7.786;2022-12-11T07:07:06;11.23;;;7.63;;
74108;SDS011;62466;47.566;7.786;2022-12-11T07:09:32;12.98;;;8.43;;
74108;SDS011;62466;47.566;7.786;2022-12-11T07:11:58;12.43;;;9.57;;
74108;SDS011;62466;47.566;7.786;2022-12-11T07:14:24;14.90;;;8.63;;
74108;SDS011;62466;47.566;7.786;2022-12-11T07:16:49;14.70;;;10.00;;
74108;SDS011;62466;47.566;7.786;2022-12-11T07:19:15;10.25;;;8.27;;
74108;SDS011;62466;47.566;7.786;2022-12-11T07:21:40;11.05;;;8.07;;
74108;SDS011;62466;47.566;7.786;2022-12-11T07:24:06;12.40;;;8.15;;
74108;SDS011;62466;47.566;7.786;2022-12-11T07:26:32;12.95;;;9.00;;
74108;SDS011;62466;47.566;7.786;2022-12-11T07:28:58;14.45;;;9.23;;
74108;SDS011;62466;47.566;7.786;2022-12-11T07:31:24;10.02;;;8.25;;
74108;SDS011;62466;47.566;7.786;2022-12-11T07:33:52;10.45;;;7.75;;
74108;SDS011;62466;47.566;7.786;2022-12-11T07:36:19;12.25;;;8.25;;
74108;SDS011;62466;47.566;7.786;2022-12-11T07:38:44;13.30;;;8.70;;
74108;SDS011;62466;47.566;7.786;2022-12-11T07:41:21;11.75;;;8.93;;
74108;SDS011;62466;47.566;7.786;2022-12-11T07:43:54;15.07;;;8.35;;
74108;SDS011;62466;47.566;7.786;2022-12-11T07:46:46;12.38;;;8.35;;
74108;SDS011;62466;47.566;7.786;2022-12-11T07:49:27;14.68;;;8.73;;
74108;SDS011;62466;47.566;7.786;2022-12-11T07:52:15;14.93;;;8.93;;
74108;SDS011;62466;47.566;7.786;2022-12-11T07:54:52;16.05;;;9.95;;
74108;SDS011;62466;47.566;7.786;2022-12-11T07:57:42;12.65;;;8.48;;
74108;SDS011;62466;47.566;7.786;2022-12-11T08:00:18;20.42;;;10.30;;
74108;SDS011;62466;47.566;7.786;2022-12-11T08:02:44;16.13;;;9.75;;
74108;SDS011;62466;47.566;7.786;2022-12-11T08:05:09;14.73;;;8.77;;
74108;SDS011;62466;47.566;7.786;2022-12-11T08:07:36;12.25;;;9.23;;
74108;SDS011;62466;47.566;7.786;2022-12-11T08:10:02;14.32;;;9.13;;
74108;SDS011;62466;47.566;7.786;2022-12-11T08:12:28;18.80;;;10.40;;
74108;SDS011;62466;47.566;7.786;2022-12-11T08:14:53;18.13;;;10.00;;
74108;SDS011;62466;47.566;7.786;2022-12-11T08:17:19;14.77;;;9.75;;
74108;SDS011;62466;47.566;7.786;2022-12-11T08:19:45;12.15;;;9.02;;
74108;SDS011;62466;47.566;7.786;2022-12-11T08:22:10;20.80;;;11.07;;
74108;SDS011;62466;47.566;7.786;2022-12-11T08:24:37;16.80;;;9.98;;
74108;SDS011;62466;47.566;7.786;2022-12-11T08:27:06;19.33;;;10.07;;
74108;SDS011;62466;47.566;7.786;2022-12-11T08:29:31;18.13;;;10.32;;
74108;SDS011;62466;47.566;7.786;2022-12-11T08:31:57;16.30;;;9.85;;
74108;SDS011;62466;47.566;7.786;2022-12-11T08:34:22;12.48;;;9.13;;
74108;SDS011;62466;47.566;7.786;2022-12-11T08:36:47;13.88;;;9.90;;
74108;SDS011;62466;47.566;7.786;2022-12-11T08:39:13;12.73;;;9.25;;
74108;SDS011;62466;47.566;7.786;2022-12-11T08:41:38;16.08;;;9.10;;
74108;SDS011;62466;47.566;7.786;2022-12-11T08:44:04;19.13;;;12.10;;
74108;SDS011;62466;47.566;7.786;2022-12-11T08:46:30;20.30;;;12.75;;
74108;SDS011;62466;47.566;7.786;2022-12-11T08:48:57;25.05;;;15.30;;
74108;SDS011;62466;47.566;7.786;2022-12-11T08:51:24;21.75;;;11.55;;
74108;SDS011;62466;47.566;7.786;2022-12-11T08:53:57;19.88;;;10.27;;
74108;SDS011;62466;47.566;7.786;2022-12-11T08:56:23;17.33;;;10.95;;
74108;SDS011;62466;47.566;7.786;2022-12-11T08:58:49;15.73;;;10.27;;
74108;SDS011;62466;47.566;7.786;2022-12-11T09:01:16;19.77;;;10.68;;
74108;SDS011;62466;47.566;7.786;2022-12-11T09:03:45;20.33;;;11.32;;
74108;SDS011;62466;47.566;7.786;2022-12-11T09:06:13;16.98;;;10.40;;
74108;SDS011;62466;47.566;7.786;2022-12-11T09:08:41;15.57;;;9.98;;
74108;SDS011;62466;47.566;7.786;2022-12-11T09:11:09;18.70;;;10.57;;
74108;SDS011;62466;47.566;7.786;2022-12-11T09:13:37;21.10;;;11.57;;
74108;SDS011;62466;47.566;7.786;2022-12-11T09:16:07;15.45;;;10.15;;
74108;SDS011;62466;47.566;7.786;2022-12-11T09:18:34;22.02;;;11.98;;
74108;SDS011;62466;47.566;7.786;2022-12-11T09:21:01;17.88;;;9.65;;
74108;SDS011;62466;47.566;7.786;2022-12-11T09:23:28;16.58;;;9.32;;
74108;SDS011;62466;47.566;7.786;2022-12-11T09:25:54;17.27;;;10.57;;
74108;SDS011;62466;47.566;7.786;2022-12-11T09:28:19;16.77;;;10.63;;
74108;SDS011;62466;47.566;7.786;2022-12-11T09:30:48;18.70;;;10.85;;
74108;SDS011;62466;47.566;7.786;2022-12-11T09:33:32;24.40;;;11.70;;
74108;SDS011;62466;47.566;7.786;2022-12-11T09:39:13;20.98;;;12.48;;
74108;SDS011;62466;47.566;7.786;2022-12-11T09:45:09;21.42;;;12.63;;
74108;SDS011;62466;47.566;7.786;2022-12-11T09:47:42;19.95;;;12.13;;
74108;SDS011;62466;47.566;7.786;2022-12-11T09:53:43;22.42;;;12.32;;
74108;SDS011;62466;47.566;7.786;2022-12-11T10:02:02;18.23;;;11.77;;
74108;SDS011;62466;47.566;7.786;2022-12-11T10:18:13;40.97;;;14.70;;
74108;SDS011;62466;47.566;7.786;2022-12-11T10:25:43;28.02;;;13.40;;
74108;SDS011;62466;47.566;7.786;2022-12-11T10:40:23;22.65;;;11.20;;
74108;SDS011;62466;47.566;7.786;2022-12-11T10:51:11;15.52;;;9.48;;
74108;SDS011;62466;47.566;7.786;2022-12-11T10:57:24;18.35;;;10.85;;
74108;SDS011;62466;47.566;7.786;2022-12-11T10:59:51;17.60;;;10.38;;
74108;SDS011;62466;47.566;7.786;2022-12-11T11:04:48;19.42;;;11.68;;
74108;SDS011;62466;47.566;7.786;2022-12-11T11:07:18;21.23;;;11.52;;
74108;SDS011;62466;47.566;7.786;2022-12-11T11:09:48;17.48;;;10.68;;
74108;SDS011;62466;47.566;7.786;2022-12-11T11:12:24;12.88;;;9.38;;
74108;SDS011;62466;47.566;7.786;2022-12-11T11:14:58;18.55;;;10.95;;
74108;SDS011;62466;47.566;7.786;2022-12-11T11:17:29;18.98;;;10.30;;
74108;SDS011;62466;47.566;7.786;2022-12-11T11:19:55;20.50;;;11.57;;
74108;SDS011;62466;47.566;7.786;2022-12-11T11:22:23;18.23;;;10.73;;
74108;SDS011;62466;47.566;7.786;2022-12-11T11:24:55;20.30;;;11.10;;
74108;SDS011;62466;47.566;7.786;2022-12-11T11:29:53;19.05;;;10.13;;
74108;SDS011;62466;47.566;7.786;2022-12-11T11:32:21;12.52;;;7.70;;
74108;SDS011;62466;47.566;7.786;2022-12-11T11:34:50;14.20;;;9.40;;
74108;SDS011;62466;47.566;7.786;2022-12-11T11:37:27;17.40;;;9.63;;
74108;SDS011;62466;47.566;7.786;2022-12-11T11:39:56;16.15;;;9.57;;
74108;SDS011;62466;47.566;7.786;2022-12-11T11:45:40;17.73;;;10.60;;
74108;SDS011;62466;47.566;7.786;2022-12-11T11:50:55;14.30;;;9.32;;
74108;SDS011;62466;47.566;7.786;2022-12-11T11:53:31;16.70;;;8.80;;
74108;SDS011;62466;47.566;7.786;2022-12-11T11:58:53;15.88;;;9.73;;
74108;SDS011;62466;47.566;7.786;2022-12-11T12:01:23;16.45;;;10.13;;
74108;SDS011;62466;47.566;7.786;2022-12-11T12:03:49;15.23;;;10.25;;
74108;SDS011;62466;47.566;7.786;2022-12-11T12:09:13;17.08;;;10.48;;
74108;SDS011;62466;47.566;7.786;2022-12-11T12:11:48;16.60;;;10.10;;
74108;SDS011;62466;47.566;7.786;2022-12-11T12:14:22;16.25;;;9.57;;
74108;SDS011;62466;47.566;7.786;2022-12-11T12:17:00;17.00;;;10.10;;
74108;SDS011;62466;47.566;7.786;2022-12-11T12:19:52;17.38;;;10.25;;
74108;SDS011;62466;47.566;7.786;2022-12-11T12:24:56;14.98;;;9.27;;
74108;SDS011;62466;47.566;7.786;2022-12-11T12:27:27;17.90;;;10.30;;
74108;SDS011;62466;47.566;7.786;2022-12-11T12:30:08;15.40;;;9.68;;
74108;SDS011;62466;47.566;7.786;2022-12-11T12:43:41;17.65;;;11.00;;
74108;SDS011;62466;47.566;7.786;2022-12-11T12:48:59;16.63;;;9.10;;
74108;SDS011;62466;47.566;7.786;2022-12-11T12:51:25;17.38;;;11.48;;
74108;SDS011;62466;47.566;7.786;2022-12-11T12:53:53;19.77;;;10.57;;
74108;SDS011;62466;47.566;7.786;2022-12-11T12:56:21;18.58;;;10.68;;
74108;SDS011;62466;47.566;7.786;2022-12-11T12:58:48;13.48;;;8.95;;
74108;SDS011;62466;47.566;7.786;2022-12-11T13:01:18;16.48;;;10.85;;
74108;SDS011;62466;47.566;7.786;2022-12-11T13:04:34;18.35;;;10.75;;
74108;SDS011;62466;47.566;7.786;2022-12-11T13:06:47;18.52;;;10.32;;
74108;SDS011;62466;47.566;7.786;2022-12-11T13:09:18;17.92;;;10.75;;
74108;SDS011;62466;47.566;7.786;2022-12-11T13:11:47;17.95;;;11.30;;
74108;SDS011;62466;47.566;7.786;2022-12-11T13:16:43;17.40;;;10.23;;
74108;SDS011;62466;47.566;7.786;2022-12-11T13:21:57;15.65;;;9.88;;
74108;SDS011;62466;47.566;7.786;2022-12-11T13:24:25;15.60;;;10.05;;
74108;SDS011;62466;47.566;7.786;2022-12-11T13:26:52;15.75;;;10.05;;
74108;SDS011;62466;47.566;7.786;2022-12-11T13:29:28;16.63;;;9.80;;
74108;SDS011;62466;47.566;7.786;2022-12-11T13:31:58;17.10;;;10.20;;
74108;SDS011;62466;47.566;7.786;2022-12-11T13:34:30;17.70;;;10.05;;
74108;SDS011;62466;47.566;7.786;2022-12-11T13:36:57;12.93;;;8.63;;
74108;SDS011;62466;47.566;7.786;2022-12-11T13:39:24;16.23;;;9.85;;
74108;SDS011;62466;47.566;7.786;2022-12-11T13:41:59;17.45;;;10.55;;
74108;SDS011;62466;47.566;7.786;2022-12-11T13:44:27;15.98;;;10.35;;
74108;SDS011;62466;47.566;7.786;2022-12-11T13:46:55;21.52;;;11.23;;
74108;SDS011;62466;47.566;7.786;2022-12-11T13:49:24;19.60;;;10.68;;
74108;SDS011;62466;47.566;7.786;2022-12-11T13:51:53;17.05;;;10.80;;
74108;SDS011;62466;47.566;7.786;2022-12-11T13:54:21;18.98;;;10.52;;
74108;SDS011;62466;47.566;7.786;2022-12-11T13:59:25;16.45;;;10.27;;
74108;SDS011;62466;47.566;7.786;2022-12-11T14:01:51;17.70;;;11.25;;
74108;SDS011;62466;47.566;7.786;2022-12-11T14:04:19;17.77;;;11.57;;
74108;SDS011;62466;47.566;7.786;2022-12-11T14:06:45;20.15;;;10.43;;
74108;SDS011;62466;47.566;7.786;2022-12-11T14:09:14;17.13;;;9.65;;
74108;SDS011;62466;47.566;7.786;2022-12-11T14:11:43;18.65;;;11.15;;
74108;SDS011;62466;47.566;7.786;2022-12-11T14:16:47;17.83;;;10.98;;
74108;SDS011;62466;47.566;7.786;2022-12-11T14:19:15;14.88;;;10.23;;
74108;SDS011;62466;47.566;7.786;2022-12-11T14:21:42;18.63;;;11.65;;
74108;SDS011;62466;47.566;7.786;2022-12-11T14:24:11;17.27;;;10.23;;
74108;SDS011;62466;47.566;7.786;2022-12-11T14:26:38;17.42;;;11.15;;
74108;SDS011;62466;47.566;7.786;2022-12-11T14:29:04;20.63;;;12.05;;
74108;SDS011;62466;47.566;7.786;2022-12-11T14:34:00;24.52;;;13.48;;
74108;SDS011;62466;47.566;7.786;2022-12-11T14:36:29;18.23;;;11.15;;
74108;SDS011;62466;47.566;7.786;2022-12-11T14:39:00;23.05;;;12.80;;
74108;SDS011;62466;47.566;7.786;2022-12-11T14:41:41;22.88;;;13.02;;
74108;SDS011;62466;47.566;7.786;2022-12-11T14:44:13;23.08;;;12.15;;
74108;SDS011;62466;47.566;7.786;2022-12-11T14:46:45;25.00;;;14.35;;
74108;SDS011;62466;47.566;7.786;2022-12-11T14:49:22;21.83;;;12.45;;
74108;SDS011;62466;47.566;7.786;2022-12-11T14:51:51;22.13;;;11.82;;
74108;SDS011;62466;47.566;7.786;2022-12-11T14:54:28;28.85;;;14.07;;
74108;SDS011;62466;47.566;7.786;2022-12-11T14:57:00;19.00;;;11.18;;
74108;SDS011;62466;47.566;7.786;2022-12-11T14:59:27;26.45;;;13.75;;
74108;SDS011;62466;47.566;7.786;2022-12-11T15:02:01;25.67;;;15.13;;
74108;SDS011;62466;47.566;7.786;2022-12-11T15:04:41;22.02;;;13.35;;
74108;SDS011;62466;47.566;7.786;2022-12-11T15:07:19;25.30;;;13.75;;
74108;SDS011;62466;47.566;7.786;2022-12-11T15:09:46;17.38;;;10.80;;
74108;SDS011;62466;47.566;7.786;2022-12-11T15:12:13;22.00;;;12.50;;
74108;SDS011;62466;47.566;7.786;2022-12-11T15:14:43;20.48;;;12.05;;
74108;SDS011;62466;47.566;7.786;2022-12-11T15:17:30;21.73;;;12.43;;
74108;SDS011;62466;47.566;7.786;2022-12-11T15:20:05;24.33;;;12.48;;
74108;SDS011;62466;47.566;7.786;2022-12-11T15:22:33;22.23;;;12.18;;
74108;SDS011;62466;47.566;7.786;2022-12-11T15:24:59;19.58;;;11.75;;
74108;SDS011;62466;47.566;7.786;2022-12-11T15:32:45;22.42;;;12.95;;
74108;SDS011;62466;47.566;7.786;2022-12-11T15:37:51;23.92;;;13.05;;
74108;SDS011;62466;47.566;7.786;2022-12-11T15:40:17;20.40;;;13.43;;
74108;SDS011;62466;47.566;7.786;2022-12-11T15:42:43;17.80;;;11.77;;
74108;SDS011;62466;47.566;7.786;2022-12-11T15:45:18;21.50;;;11.35;;
74108;SDS011;62466;47.566;7.786;2022-12-11T15:47:45;24.85;;;12.73;;
74108;SDS011;62466;47.566;7.786;2022-12-11T15:50:14;18.45;;;11.23;;
74108;SDS011;62466;47.566;7.786;2022-12-11T15:52:41;21.30;;;12.25;;
74108;SDS011;62466;47.566;7.786;2022-12-11T15:55:06;22.13;;;12.95;;
74108;SDS011;62466;47.566;7.786;2022-12-11T15:57:42;21.73;;;12.52;;
74108;SDS011;62466;47.566;7.786;2022-12-11T16:02:39;21.20;;;11.50;;
74108;SDS011;62466;47.566;7.786;2022-12-11T16:05:05;28.33;;;14.85;;
74108;SDS011;62466;47.566;7.786;2022-12-11T16:07:30;26.48;;;14.50;;
74108;SDS011;62466;47.566;7.786;2022-12-11T16:09:56;24.05;;;13.82;;
74108;SDS011;62466;47.566;7.786;2022-12-11T16:12:22;93.35;;;42.45;;
74108;SDS011;62466;47.566;7.786;2022-12-11T16:14:47;48.35;;;23.65;;
74108;SDS011;62466;47.566;7.786;2022-12-11T16:17:13;34.80;;;20.10;;
74108;SDS011;62466;47.566;7.786;2022-12-11T16:19:40;30.30;;;16.63;;
74108;SDS011;62466;47.566;7.786;2022-12-11T16:22:06;27.90;;;16.33;;
74108;SDS011;62466;47.566;7.786;2022-12-11T16:24:35;27.33;;;15.07;;
74108;SDS011;62466;47.566;7.786;2022-12-11T16:27:01;27.83;;;17.13;;
74108;SDS011;62466;47.566;7.786;2022-12-11T16:29:27;32.80;;;19.08;;
74108;SDS011;62466;47.566;7.786;2022-12-11T16:31:59;31.50;;;18.80;;
74108;SDS011;62466;47.566;7.786;2022-12-11T16:34:32;35.35;;;21.38;;
74108;SDS011;62466;47.566;7.786;2022-12-11T16:36:58;31.00;;;17.67;;
74108;SDS011;62466;47.566;7.786;2022-12-11T16:39:24;32.40;;;19.55;;
74108;SDS011;62466;47.566;7.786;2022-12-11T16:41:50;31.83;;;18.08;;
74108;SDS011;62466;47.566;7.786;2022-12-11T16:44:19;39.08;;;21.45;;
74108;SDS011;62466;47.566;7.786;2022-12-11T16:46:45;34.85;;;20.42;;